Terminal Aerodrome Forecast
Issued by NWS Atlanta, GA

Home | Current Version | Previous Version | Text Only | Print | Product List | Glossary On
Versions: 1 2 3 4 5 6 7 8 9 10 11 12 13 14 15 16 17 18 19 20 21 22 23 24 25 26 27 28 29 30 31 32 33 34 35 36 37 38 39 40 41 42
000
FTUS42 KFFC 280143 AAA
TAFATL
TAF AMD
KATL 280143Z 2802/2906 19005KT P6SM SCT050
      TEMPO 2804/2806 5SM -TSRA BR BKN035CB
     FM280600 22005KT P6SM BKN035
     FM281000 24006KT 6SM BR OVC008
     FM281400 26007KT P6SM BKN012
     FM281700 27010KT P6SM BKN045 PROB30 2817/2821 5SM TSRA BKN035CB
     FM282200 27007KT P6SM SCT050=

USA.gov is the U.S. government's official web portal to all federal, state and local government web resources and services.